Latest Coastal Weather Observations for Cape Bruny AWS

IDT60701

Issued at 4:52 pm EST Wednesday 24 August 2016 (issued every 10 minutes, with the page automatically refreshed every 10 minutes)

About coastal observations | Map of coastal stations | Coastal observations for TAS | Marine services | Other Formats
Station Details ID: 094198 Name: CAPE BRUNY (CAPE BRUNY) Lat: -43.49 Lon: 147.14 Height: 59.7 m
Data from the previous 72 hours. | See also: Recent months at Cape Bruny AWS
Date/Time
EST
Temp
°C
Wind Pressure Rain since
9am
mm
Weather Cloud Vis
km
Sea
Height
m
Swell
Dir  Spd
kts
Gust
kts
hPa Trend Height
m
Period
s
Dir
24/04:30pm 8.2 WSW 18 23 1009.8 - 0.8 - - - - - - -
24/04:00pm 8.7 WSW 17 22 1009.7 - 0.8 - - - - - - -
24/03:30pm 9.5 W 15 20 1009.6 - 0.8 - - - - - - -
24/03:00pm 10.1 W 17 22 1009.7 - 0.8 - - - - - - -
24/02:30pm 10.6 W 20 27 1009.7 - 0.8 - - - - - - -
24/02:00pm 9.9 W 19 24 1009.9 - 0.8 - - - - - - -
24/01:30pm 10.0 WSW 17 21 1010.2 - 0.8 - - - - - - -
24/01:00pm 10.4 WSW 19 27 1010.5 - 0.8 - - - - - - -
24/12:30pm 9.8 WSW 18 24 1010.6 - 0.8 - - - - - - -
24/12:00pm 9.6 W 13 16 1011.2 - 0.8 Recent precip. - - - - - -
24/11:30am 7.6 W 16 19 1011.5 - 0.8 - - - - - - -
24/11:00am 8.8 W 14 18 1011.7 - 0.6 - - - - - - -
24/10:30am 8.2 W 11 15 1011.9 - 0.6 - - - - - - -
24/10:00am 6.8 W 15 20 1012.2 - 0.6 - - - - - - -
24/09:30am 7.7 WNW 10 14 1012.5 - 0.0 - - - - - - -
24/09:00am 6.2 W 17 21 1012.7 - 2.4 Rain - - - - - -
24/08:30am 6.5 W 17 23 1012.7 - 1.8 - - - - - - -
24/08:00am 6.3 W 13 16 1012.8 - 1.8 - - - - - - -
24/07:30am 6.7 W 15 21 1012.6 - 1.2 - - - - - - -
24/07:00am 6.5 W 15 21 1012.4 - 1.2 - - - - - - -
24/06:30am 6.8 W 17 22 1012.1 - 0.8 - - - - - - -
24/06:00am 6.6 WNW 11 19 1012.2 - 0.8 Recent precip. - - - - - -
24/05:30am 6.9 WNW 11 14 1012.2 - 0.6 - - - - - - -
24/05:00am 6.6 WNW 7 9 1012.2 - 0.6 - - - - - - -
24/04:30am 6.8 W 9 13 1012.2 - 0.6 - - - - - - -
24/04:00am 7.3 W 10 13 1012.2 - 0.6 - - - - - - -
24/03:30am 6.6 WNW 9 13 1012.2 - 0.6 - - - - - - -
24/03:00am 6.8 W 11 17 1012.3 - 0.6 Recent precip. - - - - - -
24/02:30am 6.7 WNW 10 13 1012.8 - 0.6 - - - - - - -
24/02:00am 6.3 WNW 9 12 1013.1 - 0.4 - - - - - - -
24/01:30am 6.2 W 3 9 1013.3 - 0.4 - - - - - - -
24/01:00am 6.5 WNW 5 8 1013.2 - 0.4 - - - - - - -
24/12:30am 6.4 NW 6 8 1013.6 - 0.4 - - - - - - -
24/12:00am 6.9 W 13 16 1013.4 - 0.4 Recent precip. - - - - - -
 
Date/Time
EST
Temp
°C
Wind Pressure Rain since
9am
mm
Weather Cloud Vis
km
Sea
Height
m
Swell
Dir  Spd
kts
Gust
kts
hPa Trend Height
m
Period
s
Dir
23/11:30pm 7.1 WNW 10 13 1013.7 - 0.2 - - - - - - -
23/11:00pm 6.9 W 12 16 1013.6 - 0.2 - - - - - - -
23/10:30pm 7.5 W 10 15 1013.6 - 0.0 - - - - - - -
23/10:00pm 7.2 WNW 10 13 1013.9 - 0.0 - - - - - - -
23/09:30pm 8.0 WNW 11 14 1014.0 - 0.0 - - - - - - -
23/09:00pm 7.7 WNW 11 15 1013.9 - 0.0 - - - - - - -
23/08:30pm 7.8 NW 13 17 1013.8 - 0.0 - - - - - - -
23/08:00pm 7.6 NW 12 17 1013.8 - 0.0 - - - - - - -
23/07:30pm 7.5 WNW 13 18 1013.7 - 0.0 - - - - - - -
23/07:00pm 7.3 NW 11 14 1013.7 - 0.0 - - - - - - -
23/06:30pm 7.5 WNW 9 11 1013.8 - 0.0 - - - - - - -
23/06:00pm 7.8 W 11 16 1013.6 - 0.0 - - - - - - -
23/05:30pm 8.0 WSW 16 21 1013.2 - 0.0 - - - - - - -
23/05:00pm 8.6 W 16 20 1013.0 - 0.0 - - - - - - -
23/04:30pm 8.9 W 17 22 1012.9 - 0.0 - - - - - - -
23/04:00pm 9.4 W 21 26 1012.7 - 0.0 - - - - - - -
23/03:30pm 10.5 W 20 28 1012.6 - 0.0 - - - - - - -
23/03:00pm 10.5 W 18 25 1012.7 - 0.0 - - - - - - -
23/02:41pm 10.5 W 21 31 1012.9 - 0.0 - - - - - - -
23/02:30pm 9.3 W 24 31 1012.6 - 0.0 - - - - - - -
23/02:00pm 10.6 W 20 25 1012.6 - 0.0 - - - - - - -
23/01:30pm 9.9 WSW 17 23 1012.5 - 0.0 - - - - - - -
23/01:00pm 9.1 WSW 17 20 1012.5 - 0.0 - - - - - - -
23/12:30pm 9.5 WSW 15 21 1012.7 - 0.0 - - - - - - -
23/12:00pm 11.0 WSW 14 19 1013.0 - 0.0 - - - - - - -
23/11:30am 10.9 WSW 9 14 1013.2 - 0.0 - - - - - - -
23/11:00am 9.9 W 9 13 1013.3 - 0.0 - - - - - - -
23/10:30am 10.9 W 7 10 1013.4 - 0.0 - - - - - - -
23/10:00am 10.9 W 7 8 1013.5 - 0.0 - - - - - - -
23/09:30am 9.9 WNW 9 11 1013.4 - 0.0 - - - - - - -
23/09:00am 9.4 WNW 12 15 1013.3 - 0.0 - - - - - - -
23/08:30am 8.8 WNW 10 14 1013.2 - 0.0 - - - - - - -
23/08:00am 7.4 NW 12 16 1013.2 - 0.0 - - - - - - -
23/07:30am 6.9 NW 10 14 1012.8 - 0.0 - - - - - - -
23/07:00am 6.8 NW 6 10 1012.5 - 0.0 - - - - - - -
23/06:30am 6.9 WNW 9 12 1012.3 - 0.0 - - - - - - -
23/06:00am 6.6 WNW 8 11 1012.1 - 0.0 - - - - - - -
23/05:30am 7.1 NW 9 12 1012.0 - 0.0 - - - - - - -
23/05:00am 6.9 NW 11 15 1011.9 - 0.0 - - - - - - -
23/04:30am 7.0 WNW 12 16 1011.9 - 0.0 - - - - - - -
23/04:00am 7.0 WNW 13 18 1011.7 - 0.0 - - - - - - -
23/03:30am 7.0 NW 14 21 1011.8 - 0.0 - - - - - - -
23/03:00am 7.1 WNW 14 19 1011.7 - 0.0 - - - - - - -
23/02:30am 6.9 WNW 15 21 1011.9 - 0.0 - - - - - - -
23/02:00am 6.9 WNW 14 21 1012.0 - 0.0 - - - - - - -
23/01:30am 6.8 WNW 15 22 1012.1 - 0.0 - - - - - - -
23/01:00am 7.0 WNW 17 23 1012.0 - 0.0 - - - - - - -
23/12:30am 6.9 WNW 16 23 1011.9 - 0.0 - - - - - - -
23/12:00am 7.1 WNW 17 22 1011.8 - 0.0 - - - - - - -
 
Date/Time
EST
Temp
°C
Wind Pressure Rain since
9am
mm
Weather Cloud Vis
km
Sea
Height
m
Swell
Dir  Spd
kts
Gust
kts
hPa Trend Height
m
Period
s
Dir
22/11:30pm 7.3 NW 16 22 1011.9 - 0.0 - - - - - - -
22/11:00pm 7.2 NW 16 22 1011.8 - 0.0 - - - - - - -
22/10:30pm 6.9 NW 10 16 1012.0 - 0.0 - - - - - - -
22/10:00pm 7.3 NW 14 18 1011.9 - 0.0 - - - - - - -
22/09:30pm 7.3 NW 16 21 1011.6 - 0.0 - - - - - - -
22/09:00pm 7.0 NW 12 18 1011.5 - 0.0 - - - - - - -
22/08:30pm 7.2 NW 14 17 1011.3 - 0.0 - - - - - - -
22/08:00pm 7.5 NW 16 22 1011.1 - 0.0 - - - - - - -
22/07:30pm 7.3 NW 13 16 1010.9 - 0.0 - - - - - - -
22/07:00pm 7.2 NW 11 17 1010.6 - 0.0 - - - - - - -
22/06:30pm 7.1 NW 13 17 1010.5 - 0.0 - - - - - - -
22/06:00pm 7.3 WNW 15 21 1010.2 - 0.0 - - - - - - -
22/05:30pm 7.8 W 16 19 1010.0 - 0.0 - - - - - - -
22/05:00pm 8.2 WNW 17 20 1009.7 - 0.0 - - - - - - -
22/04:30pm 8.4 WNW 17 24 1009.5 - 0.0 - - - - - - -
22/04:00pm 8.3 WNW 15 22 1009.4 - 0.0 - - - - - - -
22/03:30pm 9.7 WNW 19 23 1009.2 - 0.0 - - - - - - -
22/03:00pm 9.2 WNW 15 20 1009.3 - 0.0 - - - - - - -
22/02:30pm 8.7 WNW 20 27 1009.0 - 0.0 - - - - - - -
22/02:22pm 9.9 WNW 17 27 1008.8 - 0.0 - - - - - - -
22/02:00pm 10.5 WNW 16 20 1009.0 - 0.0 - - - - - - -
22/01:30pm 10.3 WNW 17 22 1008.9 - 0.0 - - - - - - -
22/01:00pm 10.6 WNW 16 21 1008.9 - 0.0 - - - - - - -
22/12:30pm 9.4 WNW 19 26 1009.1 - 0.0 - - - - - - -
22/12:00pm 11.3 WNW 17 22 1009.1 - 0.0 - - - - - - -
22/11:30am 9.2 WNW 18 29 1009.1 - 0.0 - - - - - - -
22/11:00am 9.3 WNW 12 16 1009.3 - 0.0 - - - - - - -
22/10:30am 8.0 WNW 14 19 1009.3 - 0.0 - - - - - - -
22/10:00am 9.1 WNW 16 24 1009.3 - 0.0 - - - - - - -
22/09:30am 8.4 WNW 15 23 1009.2 - 0.0 - - - - - - -
22/09:00am 8.0 NW 12 16 1009.1 - 0.0 - - - - - - -
22/08:30am 7.4 WNW 13 18 1009.0 - 0.0 - - - - - - -
22/08:00am 6.6 WNW 16 22 1008.9 - 0.0 - - - - - - -
22/07:30am 6.9 NW 16 20 1008.7 - 0.0 - - - - - - -
22/07:00am 5.9 NW 13 17 1008.5 - 0.0 - - - - - - -
22/06:30am 5.9 NW 9 13 1008.4 - 0.0 - - - - - - -
22/06:00am 6.3 WNW 12 16 1008.3 - 0.0 - - - - - - -
22/05:30am 6.5 NW 12 17 1008.0 - 0.0 - - - - - - -
22/05:00am 6.0 WNW 8 11 1008.1 - 0.0 - - - - - - -
22/04:30am 6.2 WNW 14 18 1008.1 - 0.0 - - - - - - -
22/04:00am 6.5 WNW 15 19 1007.9 - 0.0 - - - - - - -
22/03:30am 6.5 WNW 15 21 1008.0 - 0.0 - - - - - - -
22/03:00am 6.9 WNW 14 21 1008.0 - 0.0 - - - - - - -
22/02:30am 6.6 WNW 9 14 1008.2 - 0.0 - - - - - - -
22/02:00am 6.6 NW 11 15 1008.0 - 0.0 - - - - - - -
22/01:30am 6.8 NW 14 19 1007.9 - 0.0 - - - - - - -
22/01:00am 6.7 NW 12 15 1007.9 - 0.0 - - - - - - -
22/12:30am 5.8 N 8 13 1007.9 - 0.0 - - - - - - -
22/12:00am 6.8 NW 12 19 1007.8 - 0.0 - - - - - - -
 
Date/Time
EST
Temp
°C
Wind Pressure Rain since
9am
mm
Weather Cloud Vis
km
Sea
Height
m
Swell
Dir  Spd
kts
Gust
kts
hPa Trend Height
m
Period
s
Dir
21/11:30pm 6.9 WNW 17 21 1007.4 - 0.0 - - - - - - -
21/11:00pm 7.2 WNW 16 25 1007.6 - 0.0 - - - - - - -
21/10:54pm 7.0 WNW 15 25 1007.6 - 0.0 - - - - - - -
21/10:30pm 6.9 WNW 16 23 1007.5 - 0.0 - - - - - - -
21/10:08pm 7.3 WNW 15 25 1007.4 - 0.0 - - - - - - -
21/10:00pm 7.2 NW 15 20 1007.4 - 0.0 - - - - - - -
21/09:30pm 7.5 WNW 19 27 1007.3 - 0.0 - - - - - - -
21/09:00pm 7.5 WNW 19 23 1007.1 - 0.0 - - - - - - -
21/08:30pm 7.8 WNW 18 23 1007.1 - 0.0 - - - - - - -
21/08:00pm 7.6 WNW 17 25 1007.0 - 0.0 - - - - - - -
21/07:30pm 7.8 WNW 17 22 1006.5 - 0.0 - - - - - - -
21/07:00pm 7.9 WNW 18 21 1006.4 - 0.0 - - - - - - -
21/06:30pm 7.7 NW 19 22 1006.3 - 0.0 - - - - - - -
21/06:11pm 8.3 NW 17 25 1006.3 - 0.0 - - - - - - -
21/06:00pm 8.1 WNW 12 15 1006.3 - 0.0 - - - - - - -
21/05:30pm 8.3 WNW 18 25 1005.8 - 0.0 - - - - - - -
21/05:00pm 8.9 WNW 17 23 1005.7 - 0.0 - - - - - - -

Other Formats:

Comma delimited format used in spreadsheet applications
http://www.bom.gov.au/fwo/IDT60701/IDT60701.95967.axf

JavaScript Object Notation format (JSON) in row-major order
http://www.bom.gov.au/fwo/IDT60701/IDT60701.95967.json